createdAt,value
2022-08-22T00:00:43.678Z,0.00
2022-08-22T00:01:40.006Z,0.00
2022-08-22T00:02:40.046Z,0.00
2022-08-22T00:02:46.585Z,0.00
2022-08-22T00:02:48.678Z,0.00
2022-08-22T00:03:07.261Z,0.00
2022-08-22T00:03:40.027Z,0.00
2022-08-22T00:04:40.039Z,0.00
2022-08-22T00:05:40.043Z,0.00
2022-08-22T00:06:40.060Z,0.00
2022-08-22T00:07:40.069Z,0.00
2022-08-22T00:08:40.082Z,0.00
2022-08-22T00:09:40.092Z,0.00
2022-08-22T00:10:40.096Z,0.00
2022-08-22T00:11:40.118Z,0.00
2022-08-22T00:12:40.122Z,0.00
2022-08-22T00:13:40.136Z,0.00
2022-08-22T00:14:40.143Z,0.00
2022-08-22T00:15:43.383Z,0.00
2022-08-22T00:16:40.166Z,0.00
2022-08-22T00:17:40.177Z,0.00
2022-08-22T00:18:40.188Z,0.00
2022-08-22T00:19:40.192Z,0.00
2022-08-22T00:20:40.208Z,0.00
2022-08-22T00:21:40.221Z,0.00
2022-08-22T00:22:40.220Z,0.00
2022-08-22T00:23:40.239Z,0.00
2022-08-22T00:24:40.246Z,0.00
2022-08-22T00:25:40.254Z,0.00
2022-08-22T00:26:45.086Z,0.00
2022-08-22T00:27:45.014Z,0.00
2022-08-22T00:28:40.287Z,0.00
2022-08-22T00:29:40.301Z,0.00
2022-08-22T00:30:40.307Z,0.00
2022-08-22T00:31:40.323Z,0.00
2022-08-22T00:32:40.328Z,0.00
2022-08-22T00:33:40.338Z,0.00
2022-08-22T00:34:40.355Z,0.00
2022-08-22T00:35:44.854Z,0.00
2022-08-22T00:36:40.379Z,0.00
2022-08-22T00:37:40.381Z,0.00
2022-08-22T00:38:40.393Z,0.00
2022-08-22T00:39:40.475Z,0.00
2022-08-22T00:40:40.418Z,0.00
2022-08-22T00:41:40.421Z,0.00
2022-08-22T00:42:40.441Z,0.00
2022-08-22T00:43:40.441Z,0.00
2022-08-22T00:44:40.458Z,0.00
2022-08-22T00:45:40.470Z,0.00
2022-08-22T00:46:40.471Z,0.00
2022-08-22T00:47:40.483Z,0.00
2022-08-22T00:48:40.501Z,0.00
2022-08-22T00:49:40.512Z,0.00
2022-08-22T00:50:40.519Z,0.00
2022-08-22T00:51:40.531Z,0.00
2022-08-22T00:52:40.533Z,0.00
2022-08-22T00:53:40.545Z,0.00
2022-08-22T00:54:40.560Z,0.00
2022-08-22T00:55:40.568Z,0.00
2022-08-22T00:56:40.585Z,0.00
2022-08-22T00:57:40.586Z,0.00
2022-08-22T00:58:40.594Z,0.00
2022-08-22T00:59:40.614Z,0.00
2022-08-22T01:00:40.615Z,0.00
2022-08-22T01:01:40.714Z,0.00
2022-08-22T01:02:40.635Z,0.00
2022-08-22T01:03:40.654Z,0.00
2022-08-22T01:04:40.667Z,0.00
2022-08-22T01:05:40.676Z,0.00
2022-08-22T01:06:40.685Z,0.00
2022-08-22T01:07:40.693Z,0.00
2022-08-22T01:08:40.706Z,0.00
2022-08-22T01:09:40.714Z,0.00
2022-08-22T01:10:40.726Z,0.00
2022-08-22T01:11:40.738Z,0.00
2022-08-22T01:12:40.748Z,0.00
2022-08-22T01:13:40.755Z,0.00
2022-08-22T01:14:40.766Z,0.00
2022-08-22T01:15:40.767Z,0.00
2022-08-22T01:16:40.786Z,0.00
2022-08-22T01:17:40.795Z,0.00
2022-08-22T01:18:40.798Z,0.00
2022-08-22T01:19:40.808Z,0.00
2022-08-22T01:44:42.006Z,0.00
2022-08-22T01:45:42.024Z,0.00
2022-08-22T01:46:42.034Z,0.00
2022-08-22T01:47:42.034Z,0.00
2022-08-22T01:48:42.045Z,0.00
2022-08-22T01:49:42.055Z,0.00
2022-08-22T01:50:42.068Z,0.00
2022-08-22T01:51:42.081Z,0.00
2022-08-22T01:52:42.092Z,0.00
2022-08-22T01:53:42.104Z,0.00
2022-08-22T01:54:42.106Z,0.00
2022-08-22T01:55:42.113Z,0.00
2022-08-22T01:56:42.132Z,0.00
2022-08-22T01:57:42.143Z,0.00
2022-08-22T01:58:42.150Z,0.00
2022-08-22T02:10:18.887Z,0.00
2022-08-22T02:11:18.902Z,0.00
2022-08-22T02:12:21.839Z,0.00
2022-08-22T02:13:18.913Z,0.00
2022-08-22T02:22:34.814Z,0.00
2022-08-22T02:23:34.823Z,0.00
2022-08-22T02:24:34.824Z,0.00
2022-08-22T02:25:34.842Z,0.00
2022-08-22T02:26:34.851Z,0.00
2022-08-22T02:27:34.855Z,0.00
2022-08-22T02:34:12.489Z,0.00
2022-08-22T02:35:11.679Z,0.00
2022-08-22T02:36:11.698Z,0.00
2022-08-22T02:37:11.707Z,0.00
2022-08-22T02:38:11.721Z,0.00
2022-08-22T02:39:11.726Z,0.00
2022-08-22T02:40:11.787Z,0.00
2022-08-22T02:41:11.738Z,0.00
2022-08-22T02:42:11.750Z,0.00
2022-08-22T02:43:11.764Z,0.00
2022-08-22T02:44:11.776Z,0.00
2022-08-22T02:45:11.775Z,0.00
2022-08-22T02:46:11.788Z,0.00
2022-08-22T02:47:11.795Z,0.00
2022-08-22T02:48:11.813Z,0.00
2022-08-22T02:49:11.817Z,0.00
2022-08-22T02:50:12.719Z,0.00
2022-08-22T02:51:11.835Z,0.00
2022-08-22T02:52:11.845Z,0.00
2022-08-22T02:53:11.854Z,0.00
2022-08-22T02:54:11.870Z,0.00
2022-08-22T02:55:11.872Z,0.00
2022-08-22T02:56:11.881Z,0.00
2022-08-22T02:57:14.111Z,0.00
2022-08-22T02:58:11.907Z,0.00
2022-08-22T02:59:11.911Z,0.00
2022-08-22T03:00:27.658Z,0.00
2022-08-22T03:01:12.040Z,0.00
2022-08-22T03:02:11.939Z,0.00
2022-08-22T03:03:11.956Z,0.00
2022-08-22T03:04:11.959Z,0.00
2022-08-22T03:05:11.975Z,0.00
2022-08-22T03:06:11.983Z,0.00
2022-08-22T03:07:11.987Z,0.00
2022-08-22T03:08:13.008Z,0.00
2022-08-22T03:09:12.011Z,0.00
2022-08-22T03:10:12.022Z,0.00
2022-08-22T03:11:12.030Z,0.00
2022-08-22T03:12:12.033Z,0.00
2022-08-22T03:13:12.052Z,0.00
2022-08-22T03:14:12.060Z,0.00
2022-08-22T03:15:12.067Z,0.00
2022-08-22T03:16:12.071Z,0.00
2022-08-22T03:17:12.087Z,0.00
2022-08-22T03:18:12.097Z,0.00
2022-08-22T03:19:13.320Z,0.00
2022-08-22T03:20:12.109Z,0.00
2022-08-22T03:21:12.124Z,0.00
2022-08-22T03:22:12.135Z,0.00
2022-08-22T03:23:12.143Z,0.00
2022-08-22T03:24:12.146Z,0.00
2022-08-22T03:25:12.157Z,0.00
2022-08-22T03:26:12.165Z,0.00
2022-08-22T03:27:12.175Z,0.00
2022-08-22T03:28:12.189Z,0.00
2022-08-22T03:29:12.201Z,0.00
2022-08-22T03:30:12.202Z,0.00
2022-08-22T03:31:12.217Z,0.00
2022-08-22T03:32:12.226Z,0.00
2022-08-22T03:33:12.230Z,0.00
2022-08-22T03:34:12.246Z,0.00
2022-08-22T03:35:12.249Z,0.00
2022-08-22T03:36:12.258Z,0.00
2022-08-22T03:37:12.276Z,4.00
2022-08-22T03:38:12.275Z,4.00
2022-08-22T03:39:17.193Z,0.00
2022-08-22T03:40:12.368Z,0.00
2022-08-22T03:41:12.311Z,4.00
2022-08-22T03:42:12.322Z,4.00
2022-08-22T03:43:12.324Z,4.00
2022-08-22T03:44:12.332Z,8.00
2022-08-22T03:45:12.341Z,8.00
2022-08-22T03:46:12.358Z,8.00
2022-08-22T03:47:12.359Z,8.00
2022-08-22T03:48:12.378Z,12.00
2022-08-22T03:49:12.385Z,12.00
2022-08-22T03:50:12.389Z,16.00
2022-08-22T03:51:12.405Z,20.00
2022-08-22T03:52:12.406Z,24.00
2022-08-22T03:53:19.043Z,28.00
2022-08-22T03:54:12.424Z,32.00
2022-08-22T03:55:12.433Z,36.00
2022-08-22T03:56:12.451Z,40.00
2022-08-22T03:57:12.451Z,48.00
2022-08-22T03:58:27.334Z,56.00
2022-08-22T03:59:12.476Z,60.00
2022-08-22T04:00:12.478Z,68.00
2022-08-22T04:01:12.568Z,76.00
2022-08-22T04:02:24.677Z,84.00
2022-08-22T04:03:12.513Z,96.00
2022-08-22T04:04:12.514Z,104.00
2022-08-22T04:05:12.532Z,112.00
2022-08-22T04:06:12.831Z,128.00
2022-08-22T04:07:19.665Z,136.00
2022-08-22T04:08:12.982Z,148.00
2022-08-22T04:09:12.570Z,160.00
2022-08-22T04:10:12.577Z,176.00
2022-08-22T04:11:12.589Z,188.00
2022-08-22T04:12:12.587Z,200.00
2022-08-22T04:13:12.605Z,220.00
2022-08-22T04:14:12.605Z,232.00
2022-08-22T04:15:12.615Z,248.00
2022-08-22T04:16:12.625Z,264.00
2022-08-22T04:17:12.641Z,280.00
2022-08-22T04:18:12.652Z,296.00
2022-08-22T04:19:12.651Z,312.00
2022-08-22T04:20:12.669Z,328.00
2022-08-22T04:21:12.675Z,348.00
2022-08-22T04:22:12.688Z,364.00
2022-08-22T04:23:12.699Z,380.00
2022-08-22T04:24:12.707Z,396.00
2022-08-22T04:25:12.705Z,416.00
2022-08-22T04:26:12.929Z,436.00
2022-08-22T04:27:12.734Z,452.00
2022-08-22T04:28:12.734Z,472.00
2022-08-22T04:29:12.741Z,488.00
2022-08-22T04:30:12.756Z,508.00
2022-08-22T04:31:12.766Z,528.00
2022-08-22T04:32:14.700Z,548.00
2022-08-22T04:33:12.778Z,568.00
2022-08-22T04:34:12.786Z,592.00
2022-08-22T04:35:12.796Z,612.00
2022-08-22T04:36:12.811Z,636.00
2022-08-22T04:37:12.814Z,660.00
2022-08-22T04:38:12.829Z,684.00
2022-08-22T04:39:12.840Z,708.00
2022-08-22T04:40:12.877Z,736.00
2022-08-22T04:41:12.850Z,768.00
2022-08-22T04:42:31.797Z,796.00
2022-08-22T04:43:12.867Z,828.00
2022-08-22T04:44:13.449Z,852.00
2022-08-22T04:45:12.886Z,880.00
2022-08-22T04:46:12.892Z,904.00
2022-08-22T04:47:12.909Z,924.00
2022-08-22T04:48:12.921Z,952.00
2022-08-22T04:49:12.928Z,980.00
2022-08-22T04:50:12.928Z,1008.00
2022-08-22T04:51:12.946Z,1044.00
2022-08-22T04:52:12.947Z,1076.00
2022-08-22T04:53:12.957Z,1112.00
2022-08-22T04:54:12.964Z,1144.00
2022-08-22T04:55:12.974Z,1180.00
2022-08-22T04:56:12.981Z,1224.00
2022-08-22T04:57:12.999Z,1264.00
2022-08-22T04:58:13.007Z,1308.00
2022-08-22T04:59:13.017Z,1348.00
2022-08-22T05:00:13.019Z,1380.00
2022-08-22T05:01:13.035Z,1404.00
2022-08-22T05:02:13.048Z,1420.00
2022-08-22T05:03:13.046Z,1436.00
2022-08-22T05:04:13.053Z,1456.00
2022-08-22T05:05:13.736Z,1472.00
2022-08-22T05:06:13.071Z,1476.00
2022-08-22T05:07:13.087Z,1472.00
2022-08-22T05:08:13.099Z,1460.00
2022-08-22T05:09:16.250Z,1452.00
2022-08-22T05:10:13.109Z,1448.00
2022-08-22T05:11:13.117Z,1464.00
2022-08-22T05:12:13.134Z,1496.00
2022-08-22T05:13:13.140Z,1544.00
2022-08-22T05:14:13.152Z,1616.00
2022-08-22T05:15:13.158Z,1692.00
2022-08-22T05:16:13.167Z,1768.00
2022-08-22T05:17:15.586Z,1832.00
2022-08-22T05:18:13.191Z,1896.00
2022-08-22T05:19:16.156Z,1964.00
2022-08-22T05:20:13.198Z,2032.00
2022-08-22T05:21:13.956Z,2032.00
2022-08-22T05:22:13.223Z,2032.00
2022-08-22T05:23:17.077Z,2044.00
2022-08-22T05:24:13.232Z,2044.00
2022-08-22T05:25:13.243Z,2120.00
2022-08-22T05:26:13.258Z,2176.00
2022-08-22T05:27:13.266Z,2204.00
2022-08-22T05:28:13.265Z,2244.00
2022-08-22T05:29:13.284Z,2252.00
2022-08-22T05:30:13.284Z,2288.00
2022-08-22T05:31:13.295Z,2284.00
2022-08-22T05:32:13.309Z,2252.00
2022-08-22T05:33:13.323Z,2288.00
2022-08-22T05:34:13.320Z,2420.00
2022-08-22T05:35:13.336Z,2496.00
2022-08-22T05:36:13.345Z,2564.00
2022-08-22T05:37:13.348Z,2600.00
2022-08-22T05:38:13.363Z,2596.00
2022-08-22T05:39:13.365Z,2676.00
2022-08-22T05:40:13.416Z,2776.00
2022-08-22T05:41:13.381Z,2844.00
2022-08-22T05:42:13.400Z,2948.00
2022-08-22T05:43:13.406Z,3032.00
2022-08-22T05:44:13.412Z,3104.00
2022-08-22T05:45:13.454Z,3148.00
2022-08-22T05:46:13.429Z,3216.00
2022-08-22T05:47:13.443Z,3360.00
2022-08-22T05:48:13.454Z,3548.00
2022-08-22T05:49:13.460Z,3708.00
2022-08-22T05:50:13.472Z,3828.00
2022-08-22T05:51:13.479Z,3876.00
2022-08-22T05:52:13.489Z,3888.00
2022-08-22T05:53:13.497Z,3796.00
2022-08-22T05:54:13.509Z,3844.00
2022-08-22T05:55:13.507Z,3876.00
2022-08-22T05:56:13.526Z,3904.00
2022-08-22T05:57:13.534Z,3864.00
2022-08-22T05:58:13.536Z,3780.00
2022-08-22T05:59:13.545Z,3736.00
2022-08-22T06:00:13.554Z,3772.00
2022-08-22T06:01:13.565Z,3468.00
2022-08-22T06:02:13.694Z,3548.00
2022-08-22T06:03:13.587Z,3524.00
2022-08-22T06:04:13.599Z,3456.00
2022-08-22T06:05:13.600Z,3336.00
2022-08-22T06:06:13.610Z,3260.00
2022-08-22T06:07:13.623Z,3240.00
2022-08-22T06:08:13.628Z,3176.00
2022-08-22T06:09:13.644Z,3232.00
2022-08-22T06:10:13.656Z,3336.00
2022-08-22T06:11:13.657Z,3532.00
2022-08-22T06:12:21.739Z,3756.00
2022-08-22T06:13:13.674Z,4048.00
2022-08-22T06:14:13.697Z,4316.00
2022-08-22T06:15:13.702Z,4544.00
2022-08-22T06:16:13.702Z,4700.00
2022-08-22T06:17:13.718Z,4792.00
2022-08-22T06:18:13.727Z,4848.00
2022-08-22T06:19:19.080Z,4804.00
2022-08-22T06:20:13.738Z,4780.00
2022-08-22T06:21:13.755Z,4820.00
2022-08-22T06:22:13.821Z,4860.00
2022-08-22T06:23:13.768Z,4920.00
2022-08-22T06:24:13.785Z,4928.00
2022-08-22T06:25:13.789Z,4876.00
2022-08-22T06:26:20.477Z,4800.00
2022-08-22T06:27:13.813Z,4832.00
2022-08-22T06:28:13.812Z,4920.00
2022-08-22T06:29:13.832Z,5020.00
2022-08-22T06:30:13.840Z,4948.00
2022-08-22T06:31:13.850Z,4888.00
2022-08-22T06:32:13.853Z,4704.00
2022-08-22T06:33:13.862Z,4540.00
2022-08-22T06:34:13.880Z,4416.00
2022-08-22T06:35:13.887Z,4384.00
2022-08-22T06:36:13.900Z,4452.00
2022-08-22T06:37:13.901Z,4444.00
2022-08-22T06:38:13.919Z,4484.00
2022-08-22T06:39:13.928Z,4488.00
2022-08-22T06:40:13.984Z,4496.00
2022-08-22T06:41:13.947Z,4588.00
2022-08-22T06:42:16.718Z,4732.00
2022-08-22T06:43:13.961Z,4924.00
2022-08-22T06:44:13.971Z,5016.00
2022-08-22T06:45:13.986Z,5112.00
2022-08-22T06:46:13.998Z,5184.00
2022-08-22T06:47:13.998Z,5232.00
2022-08-22T06:48:14.010Z,5244.00
2022-08-22T06:49:14.019Z,5252.00
2022-08-22T06:50:14.060Z,5260.00
2022-08-22T06:51:14.040Z,5300.00
2022-08-22T06:52:14.048Z,5260.00
2022-08-22T06:53:14.059Z,4992.00
2022-08-22T06:54:14.067Z,4700.00
2022-08-22T06:55:14.080Z,4852.00
2022-08-22T06:56:14.095Z,5220.00
2022-08-22T06:57:14.100Z,5416.00
2022-08-22T06:58:14.107Z,5624.00
2022-08-22T06:59:14.119Z,5696.00
2022-08-22T07:00:14.135Z,5744.00
2022-08-22T07:01:14.139Z,5732.00
2022-08-22T07:02:14.156Z,5816.00
2022-08-22T07:03:14.159Z,5912.00
2022-08-22T07:04:14.167Z,6064.00
2022-08-22T07:05:14.186Z,6152.00
2022-08-22T07:06:14.188Z,6292.00
2022-08-22T07:07:14.207Z,6420.00
2022-08-22T07:08:14.219Z,6664.00
2022-08-22T07:09:14.220Z,6764.00
2022-08-22T07:10:14.231Z,6684.00
2022-08-22T07:11:14.246Z,6752.00
2022-08-22T07:12:14.259Z,6844.00
2022-08-22T07:13:14.269Z,6832.00
2022-08-22T07:14:14.272Z,6564.00
2022-08-22T07:15:14.287Z,6716.00
2022-08-22T07:16:14.301Z,7108.00
2022-08-22T07:17:14.309Z,7624.00
2022-08-22T07:18:14.314Z,7688.00
2022-08-22T07:19:14.322Z,7576.00
2022-08-22T07:20:14.342Z,7588.00
2022-08-22T07:21:14.343Z,7704.00
2022-08-22T07:22:14.368Z,7656.00
2022-08-22T07:23:14.376Z,7816.00
2022-08-22T07:24:14.400Z,7868.00
2022-08-22T07:25:14.393Z,7880.00
2022-08-22T07:26:14.396Z,7796.00
2022-08-22T07:27:14.407Z,7756.00
2022-08-22T07:28:15.961Z,7904.00
2022-08-22T07:29:14.441Z,8040.00
2022-08-22T07:30:14.445Z,8108.00
2022-08-22T07:31:14.453Z,8148.00
2022-08-22T07:32:14.466Z,8340.00
2022-08-22T07:33:25.920Z,8508.00
2022-08-22T07:34:14.480Z,8656.00
2022-08-22T07:35:14.496Z,8676.00
2022-08-22T07:36:14.509Z,8768.00
2022-08-22T07:37:14.521Z,8904.00
2022-08-22T07:38:14.530Z,9104.00
2022-08-22T07:39:14.536Z,9288.00
2022-08-22T07:40:14.567Z,9600.00
2022-08-22T07:41:14.565Z,9952.00
2022-08-22T07:42:14.570Z,10076.00
2022-08-22T07:43:14.588Z,10248.00
2022-08-22T07:44:14.598Z,10328.00
2022-08-22T07:45:14.601Z,10356.00
2022-08-22T07:46:14.614Z,10244.00
2022-08-22T07:47:14.630Z,10116.00
2022-08-22T07:48:22.663Z,10100.00
2022-08-22T07:49:14.654Z,9980.00
2022-08-22T07:50:14.658Z,10192.00
2022-08-22T07:51:14.666Z,10608.00
2022-08-22T07:52:14.686Z,10796.00
2022-08-22T07:53:15.528Z,11108.00
2022-08-22T07:54:14.706Z,11264.00
2022-08-22T07:55:14.718Z,11484.00
2022-08-22T07:56:14.725Z,12056.00
2022-08-22T07:57:14.735Z,12388.00
2022-08-22T07:58:14.755Z,12608.00
2022-08-22T07:59:14.760Z,12684.00
2022-08-22T08:00:14.770Z,12008.00
2022-08-22T08:01:14.830Z,11648.00
2022-08-22T08:02:14.796Z,12620.00
2022-08-22T08:03:14.812Z,12720.00
2022-08-22T08:04:14.823Z,12792.00
2022-08-22T08:05:14.829Z,13020.00
2022-08-22T08:06:14.849Z,13176.00
2022-08-22T08:07:14.852Z,13288.00
2022-08-22T08:08:15.665Z,13228.00
2022-08-22T08:09:14.878Z,13196.00
2022-08-22T08:10:14.889Z,13240.00
2022-08-22T08:11:14.908Z,13328.00
2022-08-22T08:12:14.913Z,13436.00
2022-08-22T08:13:14.924Z,13748.00
2022-08-22T08:14:14.942Z,13976.00
2022-08-22T08:15:14.947Z,14184.00
2022-08-22T08:16:14.960Z,14280.00
2022-08-22T08:17:14.978Z,14364.00
2022-08-22T08:18:15.008Z,14424.00
2022-08-22T08:19:14.992Z,14520.00
2022-08-22T08:20:15.014Z,14752.00
2022-08-22T08:21:15.025Z,14932.00
2022-08-22T08:22:15.032Z,15124.00
2022-08-22T08:23:15.051Z,15320.00
2022-08-22T08:24:15.063Z,15608.00
2022-08-22T08:25:15.074Z,15820.00
2022-08-22T08:26:15.088Z,16284.00
2022-08-22T08:27:15.091Z,16832.00
2022-08-22T08:28:15.112Z,17248.00
2022-08-22T08:29:15.116Z,17696.00
2022-08-22T08:30:15.686Z,18272.00
2022-08-22T08:31:15.152Z,18816.00
2022-08-22T08:32:15.156Z,19296.00
2022-08-22T08:33:24.959Z,19648.00
2022-08-22T08:34:15.182Z,19680.00
2022-08-22T08:35:15.201Z,19744.00
2022-08-22T08:36:15.214Z,20128.00
2022-08-22T08:37:15.232Z,20256.00
2022-08-22T08:38:15.239Z,20416.00
2022-08-22T08:39:15.254Z,20672.00
2022-08-22T08:40:15.326Z,20608.00
2022-08-22T08:41:17.027Z,20512.00
2022-08-22T08:42:15.291Z,20512.00
2022-08-22T08:43:15.297Z,20896.00
2022-08-22T08:44:15.311Z,26848.00
2022-08-22T08:45:15.325Z,50432.00
2022-08-22T08:46:15.345Z,62848.00
2022-08-22T08:47:15.360Z,63392.00
2022-08-22T08:48:15.366Z,62112.00
2022-08-22T08:49:15.389Z,61248.00
2022-08-22T08:51:07.967Z,58592.00
2022-08-22T08:52:07.988Z,63296.00
2022-08-22T08:53:07.998Z,60480.00
2022-08-22T08:54:10.849Z,63296.00
2022-08-22T14:51:21.207Z,13164.00
2022-08-22T14:52:20.508Z,12468.00
2022-08-22T14:53:20.253Z,14012.00
2022-08-22T14:54:21.624Z,15048.00
2022-08-22T14:55:20.287Z,14300.00
2022-08-22T14:56:20.321Z,16960.00
2022-08-22T14:57:20.509Z,14952.00
2022-08-22T14:58:26.413Z,15360.00
2022-08-22T14:59:20.360Z,15872.00
2022-08-22T15:00:20.382Z,17216.00
2022-08-22T15:01:21.667Z,15424.00
2022-08-22T15:02:20.422Z,23168.00
2022-08-22T15:06:36.429Z,11304.00
2022-08-22T15:08:19.001Z,9204.00
2022-08-22T15:09:19.422Z,8728.00
2022-08-22T15:10:20.860Z,8560.00
2022-08-22T15:11:19.054Z,8552.00
2022-08-22T15:12:19.065Z,8476.00
2022-08-22T15:13:19.091Z,9456.00
2022-08-22T15:14:19.107Z,8864.00
2022-08-22T15:15:19.119Z,8164.00
2022-08-22T15:16:19.136Z,8028.00
2022-08-22T15:17:19.172Z,8692.00
2022-08-22T15:18:19.179Z,9020.00
2022-08-22T15:19:19.190Z,10104.00
2022-08-22T15:20:22.796Z,11748.00
2022-08-22T15:21:21.006Z,14432.00
2022-08-22T15:22:19.249Z,12076.00
2022-08-22T15:23:19.266Z,12012.00
2022-08-22T15:24:19.285Z,10248.00
2022-08-22T15:25:19.294Z,10036.00
2022-08-22T15:26:19.313Z,9888.00
2022-08-22T15:27:19.335Z,11108.00
2022-08-22T15:28:20.482Z,13096.00
2022-08-22T15:29:20.332Z,15552.00
2022-08-22T15:30:21.246Z,17536.00
2022-08-22T15:31:20.416Z,26272.00
2022-08-22T15:32:19.421Z,26848.00
2022-08-22T15:33:19.441Z,24960.00
2022-08-22T15:35:25.280Z,28864.00
2022-08-22T15:36:25.095Z,29696.00
2022-08-22T15:37:22.079Z,27264.00
2022-08-22T15:38:22.100Z,22880.00
2022-08-22T15:39:22.123Z,27936.00
2022-08-22T15:40:22.194Z,29920.00
2022-08-22T15:41:22.187Z,23200.00
2022-08-22T15:42:22.169Z,16288.00
2022-08-22T15:43:22.410Z,13632.00
2022-08-22T15:44:32.738Z,12888.00
2022-08-22T15:45:22.315Z,12680.00
2022-08-22T15:46:22.239Z,12252.00
2022-08-22T15:47:24.176Z,11788.00
2022-08-22T15:48:22.276Z,11396.00
2022-08-22T15:49:22.292Z,11484.00
2022-08-22T15:50:22.309Z,11124.00
2022-08-22T15:51:22.334Z,10480.00
2022-08-22T15:52:22.346Z,10280.00
2022-08-22T15:53:22.363Z,10084.00
2022-08-22T15:54:24.698Z,9904.00
2022-08-22T15:55:22.396Z,9792.00
2022-08-22T15:56:22.415Z,9540.00
2022-08-22T15:57:22.442Z,9664.00
2022-08-22T15:58:22.451Z,9768.00
2022-08-22T15:59:22.475Z,9776.00
2022-08-22T16:00:22.486Z,9556.00
2022-08-22T16:01:22.627Z,9532.00
2022-08-22T16:02:22.526Z,9324.00
2022-08-22T16:03:22.543Z,8896.00
2022-08-22T16:04:22.561Z,8720.00
2022-08-22T16:05:22.578Z,8632.00
2022-08-22T16:06:22.588Z,8344.00
2022-08-22T16:07:22.611Z,7848.00
2022-08-22T16:08:22.629Z,7832.00
2022-08-22T16:09:22.649Z,7728.00
2022-08-22T16:11:10.224Z,7656.00
2022-08-22T16:12:10.233Z,7860.00
2022-08-22T16:13:10.259Z,7468.00
2022-08-22T16:14:10.275Z,7588.00
2022-08-22T16:15:10.292Z,7224.00
2022-08-22T16:16:10.298Z,7008.00
2022-08-22T16:17:10.317Z,7768.00
2022-08-22T16:18:10.340Z,7896.00
2022-08-22T16:19:10.369Z,8144.00
2022-08-22T16:20:20.012Z,8076.00
2022-08-22T16:21:10.391Z,7812.00
2022-08-22T16:22:10.399Z,7184.00
2022-08-22T16:23:10.414Z,7184.00
2022-08-22T16:24:10.429Z,7352.00
2022-08-22T16:25:10.913Z,7412.00
2022-08-22T16:26:10.472Z,7584.00
2022-08-22T16:27:10.487Z,7584.00
2022-08-22T16:28:10.502Z,7556.00
2022-08-22T16:29:14.732Z,7548.00
2022-08-22T16:30:10.540Z,7376.00
2022-08-22T16:31:53.102Z,7012.00
2022-08-22T16:32:53.118Z,7212.00
2022-08-22T16:33:53.127Z,6732.00
2022-08-22T16:34:53.150Z,6536.00
2022-08-22T16:35:53.158Z,6336.00
2022-08-22T16:36:53.175Z,6468.00
2022-08-22T16:37:53.189Z,6556.00
2022-08-22T16:38:53.213Z,6684.00
2022-08-22T16:39:53.255Z,6708.00
2022-08-22T16:40:53.238Z,6684.00
2022-08-22T16:41:53.253Z,6356.00
2022-08-22T16:42:53.268Z,6036.00
2022-08-22T16:43:55.101Z,5728.00
2022-08-22T16:44:53.308Z,5588.00
2022-08-22T16:45:53.317Z,5516.00
2022-08-22T16:46:53.338Z,5412.00
2022-08-22T16:48:05.305Z,5532.00
2022-08-22T16:48:53.362Z,5488.00
2022-08-22T16:49:53.378Z,5408.00
2022-08-22T16:50:53.400Z,5284.00
2022-08-22T16:51:53.408Z,5428.00
2022-08-22T16:52:53.430Z,5628.00
2022-08-22T16:53:53.437Z,5672.00
2022-08-22T16:54:53.462Z,5916.00
2022-08-22T16:55:53.469Z,5800.00
2022-08-22T16:56:53.485Z,5588.00
2022-08-22T16:58:05.657Z,5424.00
2022-08-22T16:58:59.136Z,5192.00
2022-08-22T16:59:53.539Z,5324.00
2022-08-22T17:00:57.691Z,5272.00
2022-08-22T17:01:53.639Z,5020.00
2022-08-22T17:02:53.579Z,4660.00
2022-08-22T17:03:53.601Z,4420.00
2022-08-22T17:04:53.608Z,4244.00
2022-08-22T17:05:53.633Z,4116.00
2022-08-22T17:06:53.645Z,4044.00
2022-08-22T17:07:53.653Z,3956.00
2022-08-22T17:08:53.670Z,3860.00
2022-08-22T17:09:53.683Z,3780.00
2022-08-22T17:10:53.701Z,3680.00
2022-08-22T17:11:53.723Z,3596.00
2022-08-22T17:13:36.281Z,3516.00
2022-08-22T17:14:36.295Z,3492.00
2022-08-22T17:15:36.318Z,3472.00
2022-08-22T17:16:36.327Z,3428.00
2022-08-22T17:17:36.349Z,3420.00
2022-08-22T17:18:36.365Z,3432.00
2022-08-22T17:19:36.378Z,3440.00
2022-08-22T17:20:36.392Z,3460.00
2022-08-22T17:21:36.397Z,3464.00
2022-08-22T17:22:36.421Z,3444.00
2022-08-22T17:24:33.497Z,3364.00
2022-08-22T17:34:55.017Z,2588.00
2022-08-22T17:36:47.598Z,2324.00
2022-08-22T17:37:47.614Z,2196.00
2022-08-22T17:38:47.632Z,2076.00
2022-08-22T17:39:49.257Z,1980.00
2022-08-22T17:40:47.662Z,1916.00
2022-08-22T17:41:47.675Z,1860.00
2022-08-22T17:42:50.305Z,1832.00
2022-08-22T17:43:49.275Z,1812.00
2022-08-22T17:44:47.718Z,1776.00
2022-08-22T17:45:47.732Z,1736.00
2022-08-22T17:46:47.748Z,1684.00
2022-08-22T17:47:47.755Z,1624.00
2022-08-22T17:48:47.769Z,1560.00
2022-08-22T17:49:47.792Z,1492.00
2022-08-22T17:50:47.832Z,1428.00
2022-08-22T17:51:47.813Z,1364.00
2022-08-22T17:52:47.829Z,1296.00
2022-08-22T17:53:47.850Z,1232.00
2022-08-22T17:54:47.865Z,1164.00
2022-08-22T17:55:47.871Z,1096.00
2022-08-22T17:56:47.884Z,1036.00
2022-08-22T17:57:47.899Z,980.00
2022-08-22T17:58:47.920Z,928.00
2022-08-22T17:59:47.936Z,880.00
2022-08-22T18:00:47.943Z,836.00
2022-08-22T18:01:48.039Z,792.00
2022-08-22T18:02:47.982Z,744.00
2022-08-22T18:03:47.992Z,704.00
2022-08-22T18:04:47.999Z,668.00
2022-08-22T18:05:48.019Z,632.00
2022-08-22T18:06:48.033Z,592.00
2022-08-22T18:07:48.047Z,560.00
2022-08-22T18:09:17.972Z,528.00
2022-08-22T18:09:48.078Z,496.00
2022-08-22T18:10:48.090Z,468.00
2022-08-22T18:11:48.097Z,436.00
2022-08-22T18:12:48.111Z,412.00
2022-08-22T18:13:48.133Z,384.00
2022-08-22T18:14:48.140Z,360.00
2022-08-22T18:15:48.153Z,340.00
2022-08-22T18:16:48.175Z,316.00
2022-08-22T18:17:48.181Z,300.00
2022-08-22T18:18:48.201Z,280.00
2022-08-22T18:19:48.207Z,260.00
2022-08-22T18:20:48.232Z,244.00
2022-08-22T18:21:48.238Z,224.00
2022-08-22T18:22:48.251Z,208.00
2022-08-22T18:23:49.046Z,188.00
2022-08-22T18:24:49.503Z,176.00
2022-08-22T18:25:48.292Z,160.00
2022-08-22T18:26:50.941Z,144.00
2022-08-22T18:30:36.943Z,88.00
2022-08-22T18:31:38.494Z,76.00
2022-08-22T18:33:53.701Z,60.00
2022-08-22T18:34:53.707Z,52.00
2022-08-22T18:35:54.696Z,48.00
2022-08-22T18:36:55.383Z,40.00
2022-08-22T18:37:53.748Z,36.00
2022-08-22T18:38:53.768Z,32.00
2022-08-22T18:39:53.801Z,28.00
2022-08-22T18:40:53.796Z,24.00
2022-08-22T18:41:53.817Z,20.00
2022-08-22T18:42:53.815Z,16.00
2022-08-22T18:43:53.835Z,16.00
2022-08-22T18:44:53.850Z,12.00
2022-08-22T18:45:53.868Z,8.00
2022-08-22T18:46:53.868Z,8.00
2022-08-22T18:47:53.889Z,8.00
2022-08-22T18:49:14.195Z,8.00
2022-08-22T18:49:53.916Z,4.00
2022-08-22T18:50:53.931Z,4.00
2022-08-22T18:51:53.936Z,4.00
2022-08-22T18:52:55.998Z,4.00
2022-08-22T18:53:53.961Z,0.00
2022-08-22T18:54:53.983Z,0.00
2022-08-22T18:55:53.989Z,4.00
2022-08-22T18:56:54.009Z,4.00
2022-08-22T18:57:54.016Z,0.00
2022-08-22T18:58:54.271Z,0.00
2022-08-22T18:59:54.047Z,0.00
2022-08-22T19:00:54.078Z,0.00
2022-08-22T19:01:54.075Z,0.00
2022-08-22T19:02:55.942Z,0.00
2022-08-22T19:03:54.101Z,0.00
2022-08-22T19:04:54.107Z,0.00
2022-08-22T19:05:54.119Z,0.00
2022-08-22T19:06:54.141Z,0.00
2022-08-22T19:07:54.154Z,0.00
2022-08-22T19:08:54.158Z,0.00
2022-08-22T19:09:54.184Z,0.00
2022-08-22T19:10:54.189Z,0.00
2022-08-22T19:11:54.198Z,0.00
2022-08-22T19:12:54.254Z,0.00
2022-08-22T19:13:54.232Z,0.00
2022-08-22T19:14:54.237Z,0.00
2022-08-22T19:15:54.259Z,0.00
2022-08-22T19:16:54.262Z,0.00
2022-08-22T19:17:57.328Z,0.00
2022-08-22T19:18:54.297Z,0.00
2022-08-22T19:19:54.302Z,0.00
2022-08-22T19:20:54.316Z,0.00
2022-08-22T19:21:54.327Z,0.00
2022-08-22T19:22:54.431Z,0.00
2022-08-22T19:23:54.353Z,0.00
2022-08-22T19:24:54.375Z,0.00
2022-08-22T19:25:54.386Z,0.00
2022-08-22T19:26:54.399Z,0.00
2022-08-22T19:27:54.414Z,0.00
2022-08-22T19:28:54.422Z,0.00
2022-08-22T19:29:54.430Z,0.00
2022-08-22T19:30:55.254Z,0.00
2022-08-22T19:31:54.457Z,0.00
2022-08-22T19:32:54.532Z,0.00